Time;durP1;ratioP1;P1;durP2;ratioP2;P2;SDS_P1;SDS_P2;PMS_P1;PMS_P2;Temp;Humidity;BMP_temperature;BMP_pressure;BME280_temperature;BME280_humidity;BME280_pressure;Samples;Min_cycle;Max_cycle;Signal;HPM_P1;HPM_P2
2021/12/24 00:01:22;;;;;;;55.55;34.63;;;2.40;99.90;;;2.49;82.13;99471.84;4882165;29;20250;-71
2021/12/24 00:03:51;;;;;;;55.45;36.20;;;2.40;99.90;;;2.50;81.98;99473.50;4882608;29;20186;-72
2021/12/24 00:06:20;;;;;;;58.53;35.58;;;2.50;99.90;;;2.47;82.24;99479.25;4882259;29;20179;-71
2021/12/24 00:08:52;;;;;;;60.67;36.95;;;2.40;99.90;;;2.49;82.52;99475.34;4882381;29;20219;-71
2021/12/24 00:11:21;;;;;;;65.78;36.58;;;2.50;99.90;;;2.57;82.20;99469.06;4882411;29;20186;-72
2021/12/24 00:13:51;;;;;;;52.50;34.03;;;2.50;99.90;;;2.52;82.03;99471.47;4882952;29;20532;-72
2021/12/24 00:16:24;;;;;;;65.00;37.92;;;2.50;99.90;;;2.59;82.08;99477.75;4882575;29;20183;-71
2021/12/24 00:18:58;;;;;;;53.95;37.35;;;2.50;99.90;;;2.55;82.25;99471.94;4882476;29;20211;-71
2021/12/24 00:35:40;;;;;;;63.80;37.50;;;2.40;99.90;;;2.61;82.67;99465.03;4877294;29;20285;-71
2021/12/24 00:38:11;;;;;;;60.08;36.58;;;2.50;99.90;;;2.67;82.52;99464.28;4881516;29;20221;-70
2021/12/24 00:40:44;;;;;;;53.53;34.65;;;2.60;99.90;;;2.69;82.65;99456.91;4880826;29;20187;-72
2021/12/24 00:43:14;;;;;;;64.32;33.92;;;2.60;99.90;;;2.72;82.29;99445.84;4904491;23;20328;-68
2021/12/24 00:45:46;;;;;;;63.17;36.13;;;2.60;99.90;;;2.77;82.41;99443.44;4900925;29;20586;-66
2021/12/24 00:48:18;;;;;;;60.13;38.03;;;2.60;99.90;;;2.74;82.40;99441.16;4899811;29;20208;-66
2021/12/24 00:51:06;;;;;;;52.17;34.28;;;2.70;99.90;;;2.72;82.43;99437.84;4901735;29;20206;-68
2021/12/24 00:56:24;;;;;;;54.08;33.70;;;2.80;99.90;;;2.69;82.38;99435.56;5004936;23;20252;-63
2021/12/24 00:58:52;;;;;;;52.50;35.78;;;2.70;99.90;;;2.72;82.49;99435.16;4917655;29;20200;-63
2021/12/24 01:01:20;;;;;;;57.97;35.10;;;2.70;99.90;;;2.73;82.63;99441.34;4917591;29;20225;-65
2021/12/24 01:03:49;;;;;;;52.97;36.13;;;2.70;99.90;;;2.74;82.78;99443.00;4917181;29;20186;-64
2021/12/24 01:06:17;;;;;;;53.13;35.05;;;2.70;99.90;;;2.77;82.50;99438.13;4913917;29;20222;-63
2021/12/24 01:08:46;;;;;;;53.72;32.28;;;2.80;99.90;;;2.71;82.78;99438.06;4898637;29;20687;-63
2021/12/24 01:11:14;;;;;;;52.75;33.20;;;2.70;99.90;;;2.69;83.06;99424.88;4899645;29;20193;-64
2021/12/24 01:13:46;;;;;;;60.17;35.00;;;2.70;99.90;;;2.89;82.69;99431.28;4900036;29;20179;-63
2021/12/24 01:16:22;;;;;;;50.15;31.60;;;2.80;99.90;;;2.83;82.65;99426.69;4899721;29;20285;-63
2021/12/24 01:18:59;;;;;;;48.80;31.27;;;2.80;99.90;;;2.86;82.64;99426.28;4898187;29;20257;-65
2021/12/24 01:21:43;;;;;;;58.15;32.65;;;2.80;99.90;;;2.74;82.92;99422.47;4897950;29;20256;-64
2021/12/24 01:24:17;;;;;;;57.38;35.83;;;2.80;99.90;;;2.87;82.82;99422.63;4899370;29;20716;-65
2021/12/24 01:26:54;;;;;;;50.22;30.80;;;2.80;99.90;;;2.87;82.72;99421.78;4898301;29;20274;-63
2021/12/24 01:37:58;;;;;;;55.35;36.22;;;2.90;99.90;;;3.05;82.61;99422.19;4897484;29;20197;-63
2021/12/24 01:40:40;;;;;;;54.95;33.83;;;3.00;99.90;;;2.99;82.57;99421.13;4897514;29;20221;-64
2021/12/24 01:43:08;;;;;;;56.72;32.97;;;3.00;99.90;;;3.09;82.71;99428.00;4897924;29;20222;-63
2021/12/24 01:45:38;;;;;;;48.47;32.95;;;3.00;99.90;;;3.09;82.43;99419.97;4898938;29;20270;-63
2021/12/24 01:48:10;;;;;;;57.40;33.63;;;3.00;99.90;;;3.10;82.52;99422.44;4897948;29;20195;-64
2021/12/24 01:50:42;;;;;;;51.38;30.17;;;3.10;99.90;;;3.11;82.53;99420.59;4897160;29;20221;-65
2021/12/24 01:53:12;;;;;;;45.58;33.22;;;3.10;99.90;;;3.02;82.45;99418.06;4897099;29;20679;-63
2021/12/24 01:55:47;;;;;;;49.75;31.20;;;3.00;99.90;;;3.03;82.77;99414.38;4896777;29;20719;-64
2021/12/24 01:58:19;;;;;;;51.72;29.23;;;3.00;99.90;;;3.11;83.00;99417.94;4897065;29;20250;-62
2021/12/24 02:00:52;;;;;;;48.60;31.50;;;3.00;99.90;;;3.08;82.64;99412.97;4897080;29;20573;-64
2021/12/24 02:03:21;;;;;;;44.80;30.02;;;3.10;99.90;;;3.04;83.03;99408.03;4898273;29;20183;-64
2021/12/24 02:05:50;;;;;;;43.10;28.67;;;3.00;99.90;;;3.14;82.81;99412.22;4898100;29;20230;-64
2021/12/24 02:08:19;;;;;;;43.72;30.52;;;3.10;99.90;;;2.97;83.31;99409.78;4897170;29;20198;-63
2021/12/24 02:10:51;;;;;;;45.83;31.38;;;3.00;99.90;;;3.15;82.93;99398.66;4896949;29;20590;-63
2021/12/24 02:13:22;;;;;;;48.70;31.27;;;3.10;99.90;;;3.18;82.92;99398.28;4896795;29;20198;-64
2021/12/24 02:16:07;;;;;;;47.75;30.13;;;3.10;99.90;;;3.28;82.73;99400.63;4896692;29;20222;-63
2021/12/24 02:28:16;;;;;;;44.65;28.10;;;3.20;99.90;;;3.19;82.93;99388.41;4896872;29;20223;-63
2021/12/24 02:30:04;;;;;;;43.38;27.40;;;3.30;99.90;;;3.31;82.80;99370.84;4896454;29;20213;-64
2021/12/24 02:32:33;;;;;;;41.42;24.60;;;3.20;99.90;;;3.35;82.89;99377.44;4896550;29;20204;-63
2021/12/24 02:35:02;;;;;;;46.60;27.67;;;3.30;99.90;;;3.20;83.12;99374.00;4897702;29;20194;-64
2021/12/24 02:37:32;;;;;;;40.58;26.17;;;3.20;99.90;;;3.20;83.27;99368.66;4896379;29;20201;-65
2021/12/24 02:40:00;;;;;;;44.38;27.77;;;3.20;99.90;;;3.46;82.59;99375.09;4897268;29;20532;-64
2021/12/24 02:42:29;;;;;;;39.83;26.15;;;3.30;99.90;;;3.56;81.93;99366.72;4897668;29;20189;-64
2021/12/24 02:44:58;;;;;;;38.60;26.83;;;3.40;99.90;;;3.54;81.93;99368.75;4896096;29;20249;-64
2021/12/24 02:47:42;;;;;;;38.53;25.85;;;3.40;99.90;;;3.41;82.37;99357.97;4897485;29;20186;-64
2021/12/24 02:55:44;;;;;;;37.08;24.25;;;3.40;99.90;;;3.30;82.94;99351.28;4897879;29;20601;-65
2021/12/24 02:58:13;;;;;;;38.30;27.55;;;3.30;99.90;;;3.53;82.11;99352.94;4896066;29;20193;-64
2021/12/24 03:00:41;;;;;;;34.25;25.17;;;3.40;99.90;;;3.59;82.27;99352.97;4896110;29;20191;-62
2021/12/24 03:03:09;;;;;;;33.53;23.85;;;3.50;99.90;;;3.56;82.40;99350.69;4895939;29;20580;-63
2021/12/24 03:05:38;;;;;;;33.85;23.45;;;3.50;99.90;;;3.39;82.94;99343.94;4896000;29;20715;-64
2021/12/24 03:08:08;;;;;;;33.65;22.80;;;3.40;99.90;;;3.50;82.38;99351.44;4896064;29;20250;-64
2021/12/24 03:10:37;;;;;;;35.22;24.60;;;3.40;99.90;;;3.51;83.02;99350.44;4895913;29;20305;-64
2021/12/24 03:13:05;;;;;;;35.50;25.27;;;3.40;99.90;;;3.60;82.93;99349.25;4897392;29;20178;-64
2021/12/24 03:15:34;;;;;;;33.30;23.13;;;3.50;99.90;;;3.58;82.69;99343.31;4897207;29;20270;-64
2021/12/24 03:18:02;;;;;;;34.05;22.38;;;3.50;99.90;;;3.41;83.04;99333.91;4896125;29;20194;-63
2021/12/24 03:20:34;;;;;;;36.22;22.25;;;3.40;99.90;;;3.48;83.46;99340.97;4896187;29;20783;-64
2021/12/24 03:23:11;;;;;;;31.55;22.92;;;3.40;99.90;;;3.65;82.86;99336.13;4896625;29;20201;-63
2021/12/24 03:25:40;;;;;;;30.85;21.20;;;3.50;99.90;;;3.61;82.70;99337.56;4896950;29;20217;-63
2021/12/24 03:28:09;;;;;;;29.30;20.33;;;3.50;99.90;;;3.65;83.18;99340.66;4897317;29;20592;-63
2021/12/24 03:30:37;;;;;;;28.50;21.05;;;3.50;99.90;;;3.64;82.84;99337.16;4896150;29;20217;-62
2021/12/24 03:33:06;;;;;;;28.48;20.70;;;3.60;99.90;;;3.69;82.90;99337.41;4896822;29;20254;-63
2021/12/24 03:35:34;;;;;;;27.90;21.38;;;3.60;99.90;;;3.61;83.29;99336.72;4899386;29;20746;-64
2021/12/24 03:38:02;;;;;;;25.58;19.70;;;3.60;99.90;;;3.66;82.98;99327.09;4899493;29;20613;-63
2021/12/24 03:40:31;;;;;;;27.15;20.23;;;3.60;99.90;;;3.75;83.19;99323.25;4899772;29;20190;-63
2021/12/24 03:43:01;;;;;;;33.28;22.45;;;3.70;99.90;;;3.78;83.13;99324.69;4899276;29;20197;-63
2021/12/24 03:45:36;;;;;;;27.73;19.52;;;3.70;99.90;;;3.81;82.76;99329.66;4898956;29;20246;-64
2021/12/24 03:48:15;;;;;;;29.75;20.70;;;3.70;99.90;;;3.78;83.23;99327.34;4899438;29;20204;-63
2021/12/24 03:50:52;;;;;;;30.67;21.65;;;3.70;99.90;;;3.73;83.30;99317.25;4899056;29;20221;-63
2021/12/24 03:56:07;;;;;;;27.90;21.42;;;3.70;99.90;;;3.91;83.07;99320.25;4900535;29;20226;-63
2021/12/24 03:58:37;;;;;;;32.25;20.02;;;3.80;99.90;;;3.86;83.24;99322.69;4899208;29;20616;-63
2021/12/24 04:01:24;;;;;;;31.15;20.90;;;3.80;99.90;;;3.77;83.25;99315.84;4900926;29;20181;-63
2021/12/24 04:04:14;;;;;;;32.20;20.98;;;3.80;99.90;;;3.93;83.40;99307.50;4903017;29;20294;-63
2021/12/24 04:07:02;;;;;;;28.52;21.20;;;3.80;99.90;;;4.01;82.97;99297.66;4908800;29;20269;-63
2021/12/24 04:10:01;;;;;;;34.25;21.80;;;3.90;99.90;;;3.99;83.44;99289.00;4908106;29;20233;-63
2021/12/24 04:12:48;;;;;;;27.17;18.65;;;3.90;99.90;;;4.01;83.43;99286.94;4900696;29;20520;-63
2021/12/24 04:15:18;;;;;;;30.77;20.02;;;3.90;99.90;;;4.03;83.39;99298.28;4898651;29;20598;-64
2021/12/24 04:17:47;;;;;;;29.00;20.08;;;4.00;99.90;;;4.02;83.53;99283.25;4900655;29;20170;-63
2021/12/24 04:25:47;;;;;;;29.48;21.42;;;4.00;99.90;;;4.15;83.74;99280.63;4900464;29;20220;-64
2021/12/24 04:28:16;;;;;;;25.45;17.70;;;4.00;99.90;;;4.20;83.37;99283.53;4899500;29;20614;-64
2021/12/24 04:30:50;;;;;;;28.58;17.88;;;4.10;99.90;;;4.12;83.57;99289.03;4899023;29;20210;-63
2021/12/24 04:33:25;;;;;;;26.90;19.90;;;4.10;99.90;;;4.20;83.56;99278.19;4898399;29;20232;-62
2021/12/24 04:36:10;;;;;;;28.17;20.30;;;4.20;99.90;;;4.21;83.37;99279.84;4897874;29;20253;-63
2021/12/24 04:38:59;;;;;;;29.98;19.23;;;4.20;99.90;;;4.30;83.15;99273.28;4898257;29;20198;-64
2021/12/24 04:52:58;;;;;;;25.33;18.15;;;4.20;99.90;;;4.29;83.51;99269.78;4898572;29;20670;-64
2021/12/24 05:01:24;;;;;;;30.42;19.00;;;4.30;99.90;;;4.37;83.65;99258.88;4897525;29;20224;-64
2021/12/24 05:03:56;;;;;;;29.20;19.90;;;4.30;99.90;;;4.32;83.59;99263.16;4898043;29;20191;-64
2021/12/24 05:06:33;;;;;;;23.70;18.00;;;4.30;99.90;;;4.36;83.58;99246.50;4899120;29;20210;-64
2021/12/24 05:09:08;;;;;;;25.95;18.40;;;4.30;99.90;;;4.29;84.00;99248.34;4897588;29;20201;-64
2021/12/24 05:11:38;;;;;;;30.95;21.67;;;4.30;99.90;;;4.42;83.75;99258.25;4897511;29;20209;-63
2021/12/24 05:14:06;;;;;;;25.67;16.23;;;4.30;99.90;;;4.41;83.97;99256.59;4897712;29;20245;-64
2021/12/24 05:17:17;;;;;;;25.00;17.80;;;4.30;99.90;;;4.49;83.88;99256.44;4897783;29;20727;-63
2021/12/24 05:23:18;;;;;;;25.92;17.15;;;4.40;99.90;;;4.56;84.08;99261.78;4897604;29;20209;-63
2021/12/24 05:25:50;;;;;;;22.63;15.45;;;4.50;99.90;;;4.60;83.77;99255.03;4897469;29;20222;-64
2021/12/24 05:28:19;;;;;;;20.70;14.90;;;4.50;99.90;;;4.53;83.86;99251.50;4897649;29;20194;-64
2021/12/24 05:30:49;;;;;;;23.58;15.20;;;4.40;99.90;;;4.53;84.31;99255.00;4897182;29;20317;-64
2021/12/24 05:33:17;;;;;;;19.20;13.77;;;4.50;99.90;;;4.58;84.42;99252.53;4897442;29;20202;-63
2021/12/24 05:35:48;;;;;;;20.98;14.27;;;4.50;99.90;;;4.63;84.33;99243.88;4897155;29;20214;-64
2021/12/24 05:38:17;;;;;;;19.98;14.30;;;4.50;99.90;;;4.68;83.93;99247.59;4898454;29;20199;-63
2021/12/24 05:40:46;;;;;;;20.02;13.68;;;4.60;99.90;;;4.72;83.95;99242.66;4897007;29;20205;-65
2021/12/24 05:43:15;;;;;;;18.45;13.48;;;4.60;99.90;;;4.76;84.11;99255.44;4898429;29;20185;-64
2021/12/24 05:45:44;;;;;;;17.45;12.38;;;4.70;99.90;;;4.77;84.32;99251.75;4897094;29;20312;-62
2021/12/24 05:48:15;;;;;;;15.95;12.07;;;4.70;99.90;;;4.80;83.98;99266.56;4898861;29;20189;-64
2021/12/24 05:50:44;;;;;;;14.95;12.10;;;4.70;99.90;;;4.77;84.22;99273.19;4897161;29;20202;-63
2021/12/24 05:53:40;;;;;;;11.98;10.13;;;4.70;99.90;;;4.73;84.35;99255.88;4899385;29;20202;-66
2021/12/24 05:56:16;;;;;;;12.45;10.63;;;4.70;99.90;;;4.88;84.25;99257.53;4896641;29;20225;-64
2021/12/24 05:58:47;;;;;;;12.27;8.80;;;4.80;99.90;;;4.88;84.28;99242.25;4896943;29;20274;-63
2021/12/24 06:01:16;;;;;;;12.02;9.43;;;4.80;99.90;;;4.90;84.30;99236.69;4897030;29;20251;-63
2021/12/24 06:03:48;;;;;;;9.10;7.70;;;4.80;99.90;;;4.88;84.44;99226.19;4897944;29;20486;-65
2021/12/24 06:06:16;;;;;;;9.18;7.10;;;4.80;99.90;;;4.98;84.24;99228.47;4897925;29;20218;-64
2021/12/24 06:08:46;;;;;;;8.82;7.43;;;4.90;99.90;;;5.00;84.33;99226.38;4897999;29;20179;-63
2021/12/24 06:11:14;;;;;;;10.32;7.80;;;4.90;99.90;;;5.03;84.15;99228.66;4897783;29;20221;-64
2021/12/24 06:13:44;;;;;;;9.80;8.75;;;4.90;99.90;;;5.00;84.24;99231.75;4898092;29;20209;-64
2021/12/24 06:16:12;;;;;;;9.88;7.57;;;4.90;99.90;;;4.95;84.52;99227.00;4898395;29;20266;-64
2021/12/24 06:18:41;;;;;;;10.00;8.07;;;4.90;99.90;;;5.00;84.58;99232.56;4897950;29;20242;-64
2021/12/24 06:21:09;;;;;;;7.95;7.07;;;4.90;99.90;;;5.07;84.29;99221.84;4897687;29;20662;-65
2021/12/24 06:23:39;;;;;;;6.88;5.47;;;5.00;99.90;;;5.07;84.29;99220.00;4897184;29;20178;-65
2021/12/24 06:26:10;;;;;;;7.88;6.47;;;5.00;99.90;;;5.12;84.13;99225.56;4897428;29;20218;-63
2021/12/24 06:28:38;;;;;;;8.65;7.15;;;5.00;99.90;;;5.15;84.43;99232.34;4898061;29;20178;-64
2021/12/24 06:31:08;;;;;;;6.65;5.65;;;5.10;99.90;;;5.19;84.29;99225.53;4897561;29;20667;-64
2021/12/24 06:33:36;;;;;;;6.95;6.15;;;5.10;99.90;;;5.23;84.05;99232.13;4897568;29;20273;-64
2021/12/24 06:36:07;;;;;;;9.15;6.40;;;5.10;99.90;;;5.20;84.01;99227.19;4897384;29;20718;-64
2021/12/24 06:38:35;;;;;;;7.10;6.40;;;5.10;99.90;;;5.23;83.83;99230.28;4897545;29;20174;-64
2021/12/24 06:41:04;;;;;;;7.25;6.35;;;5.20;99.90;;;5.23;84.36;99218.72;4897595;29;20197;-64
2021/12/24 06:43:34;;;;;;;6.50;5.90;;;5.10;99.90;;;5.19;84.39;99234.41;4897615;29;20174;-63
2021/12/24 06:46:09;;;;;;;7.25;6.43;;;5.10;99.90;;;5.17;84.53;99235.66;4897649;29;20261;-64
2021/12/24 06:48:38;;;;;;;7.32;6.40;;;5.20;99.90;;;5.20;84.74;99232.56;4897251;29;20198;-64
2021/12/24 06:51:06;;;;;;;6.82;6.03;;;5.10;99.90;;;5.19;84.63;99234.41;4898138;29;20284;-64
2021/12/24 06:53:35;;;;;;;6.60;6.00;;;5.20;99.90;;;5.15;84.75;99225.13;4897400;29;20197;-64
2021/12/24 06:56:04;;;;;;;6.75;5.47;;;5.10;99.90;;;5.18;84.88;99226.59;4919133;23;20230;-67
2021/12/24 06:58:38;;;;;;;6.32;5.60;;;5.10;99.90;;;5.22;84.83;99236.69;4905687;29;20610;-68
2021/12/24 07:01:06;;;;;;;6.97;5.45;;;5.20;99.90;;;5.22;85.04;99228.66;4895986;29;20221;-68
2021/12/24 07:03:35;;;;;;;6.35;5.72;;;5.20;99.90;;;5.25;85.05;99235.44;4895023;29;20298;-67
2021/12/24 07:06:04;;;;;;;5.25;4.75;;;5.20;99.90;;;5.29;84.60;99231.31;4881104;29;20210;-67
2021/12/24 07:08:33;;;;;;;6.68;5.97;;;5.20;99.90;;;5.33;84.94;99237.06;4882162;29;20195;-66
2021/12/24 07:11:02;;;;;;;6.05;5.45;;;5.20;99.90;;;5.29;84.66;99242.03;4882991;29;20205;-66
2021/12/24 07:13:30;;;;;;;6.55;5.95;;;5.30;99.90;;;5.30;84.92;99240.19;4882421;29;20270;-67
2021/12/24 07:16:00;;;;;;;5.80;5.22;;;5.20;99.90;;;5.30;84.78;99246.38;4882561;29;20202;-68
2021/12/24 07:18:28;;;;;;;5.35;4.85;;;5.20;99.90;;;5.33;84.84;99235.22;4882928;29;20191;-67
2021/12/24 07:20:56;;;;;;;5.85;5.22;;;5.20;99.90;;;5.33;84.75;99240.56;4882778;29;20190;-66
2021/12/24 07:23:25;;;;;;;6.15;5.55;;;5.30;99.90;;;5.32;85.13;99236.28;4884612;29;20183;-67
2021/12/24 07:25:53;;;;;;;5.53;5.03;;;5.30;99.90;;;5.32;85.30;99241.63;4883300;29;20194;-66
2021/12/24 07:28:21;;;;;;;6.18;4.88;;;5.30;99.90;;;5.39;84.68;99229.03;4882498;29;20251;-67
2021/12/24 07:30:50;;;;;;;6.03;5.53;;;5.30;99.90;;;5.38;84.77;99237.28;4882030;29;20230;-67
2021/12/24 07:33:20;;;;;;;6.65;5.20;;;5.30;99.90;;;5.50;85.00;99244.50;4882100;29;20222;-66
2021/12/24 07:35:48;;;;;;;4.40;4.00;;;5.40;99.90;;;5.46;84.95;99240.59;4881682;29;20668;-67
2021/12/24 07:38:16;;;;;;;4.65;4.15;;;5.40;99.90;;;5.47;84.71;99252.94;4882154;29;20195;-66
2021/12/24 07:40:46;;;;;;;6.20;3.85;;;5.40;99.90;;;5.43;84.76;99245.50;4881609;29;20202;-67
2021/12/24 07:43:14;;;;;;;5.22;4.50;;;5.40;99.90;;;5.47;84.82;99239.53;4881828;29;20183;-66
2021/12/24 07:45:45;;;;;;;5.50;4.32;;;5.40;99.90;;;5.61;84.64;99243.84;4881700;29;20190;-68
2021/12/24 07:48:15;;;;;;;4.53;3.72;;;5.50;99.90;;;5.61;84.37;99241.16;4881360;29;20629;-67
2021/12/24 07:53:34;;;;;;;3.42;3.13;;;5.50;99.90;;;5.60;84.22;99246.75;4881592;29;20225;-67
2021/12/24 07:56:02;;;;;;;3.90;3.60;;;5.50;99.90;;;5.60;84.14;99234.16;4881629;29;20580;-67
2021/12/24 07:58:30;;;;;;;3.80;3.53;;;5.50;99.90;;;5.58;84.24;99235.38;4881405;29;20179;-67
2021/12/24 08:00:59;;;;;;;3.30;3.00;;;5.50;99.90;;;5.60;84.83;99247.56;4881448;29;20199;-68
2021/12/24 08:03:27;;;;;;;5.47;4.38;;;5.60;99.90;;;5.66;84.55;99241.34;4881665;29;20189;-67
2021/12/24 08:05:57;;;;;;;4.07;3.67;;;5.60;99.90;;;5.69;84.41;99240.94;4880812;29;20575;-65
2021/12/24 08:08:25;;;;;;;3.40;3.10;;;5.60;99.90;;;5.66;84.30;99248.59;4882554;29;20193;-68
2021/12/24 08:10:54;;;;;;;4.30;3.90;;;5.60;99.90;;;5.58;84.72;99249.63;4884435;29;20198;-68
2021/12/24 08:13:22;;;;;;;3.83;3.47;;;5.50;99.90;;;5.63;84.96;99246.31;4881419;29;20216;-67
2021/12/24 08:15:54;;;;;;;4.25;3.85;;;5.60;99.90;;;5.68;84.81;99233.09;4880534;29;20198;-67
2021/12/24 08:18:22;;;;;;;4.25;3.88;;;5.60;99.90;;;5.68;84.76;99238.44;4880708;29;20548;-69
2021/12/24 08:20:51;;;;;;;3.95;3.55;;;5.60;99.90;;;5.70;84.84;99239.06;4880011;29;20290;-68
2021/12/24 08:23:20;;;;;;;3.75;3.45;;;5.60;99.90;;;5.77;84.14;99239.03;4880847;29;20190;-66
2021/12/24 08:25:49;;;;;;;4.97;3.65;;;5.60;99.90;;;5.84;84.54;99231.81;4880351;29;20574;-67
2021/12/24 08:28:17;;;;;;;5.35;3.67;;;5.70;99.90;;;5.90;84.36;99237.19;4880478;29;20336;-67
2021/12/24 08:30:45;;;;;;;4.10;3.80;;;5.80;99.90;;;5.90;83.79;99234.50;4880326;29;20549;-68
2021/12/24 08:33:15;;;;;;;4.20;3.65;;;5.80;99.90;;;5.86;83.82;99235.06;4880347;29;20214;-68
2021/12/24 08:35:44;;;;;;;4.20;3.80;;;5.70;99.90;;;5.87;83.90;99232.22;4880127;29;20195;-67
2021/12/24 08:38:12;;;;;;;6.40;5.55;;;5.80;99.90;;;5.91;83.93;99238.81;4880352;29;20217;-67
2021/12/24 08:40:42;;;;;;;4.10;3.70;;;5.80;99.90;;;5.85;83.99;99233.47;4880764;29;20186;-66
2021/12/24 08:43:10;;;;;;;4.07;3.65;;;5.80;99.90;;;5.90;83.93;99228.31;4880767;29;20210;-67
2021/12/24 08:45:38;;;;;;;4.97;3.97;;;5.80;99.90;;;5.85;84.40;99222.72;4880502;29;20175;-66
2021/12/24 08:48:07;;;;;;;4.13;3.40;;;5.80;99.90;;;5.88;83.95;99223.13;4880757;29;20282;-68
2021/12/24 08:50:35;;;;;;;5.05;4.55;;;5.80;99.90;;;5.85;84.15;99212.81;4881048;29;20739;-68
2021/12/24 08:53:06;;;;;;;7.07;5.50;;;5.80;99.90;;;5.89;84.00;99218.59;4880619;29;20263;-66
2021/12/24 08:55:35;;;;;;;6.35;4.35;;;5.80;99.90;;;5.85;84.02;99211.97;4881257;29;20278;-70
2021/12/24 08:58:05;;;;;;;6.07;5.20;;;5.80;99.90;;;5.86;84.40;99208.25;4881223;29;20624;-68
2021/12/24 09:00:36;;;;;;;6.35;5.75;;;5.80;99.90;;;6.06;83.76;99214.38;4882151;29;20211;-67
2021/12/24 09:03:05;;;;;;;5.30;4.80;;;5.90;99.90;;;6.05;83.99;99202.03;4881469;29;20205;-69
2021/12/24 09:05:34;;;;;;;4.38;3.90;;;5.90;99.90;;;6.04;83.78;99211.09;4880664;29;20263;-66
2021/12/24 09:08:03;;;;;;;4.05;3.13;;;5.90;99.90;;;5.99;83.40;99208.25;4882408;29;20270;-68
2021/12/24 09:10:31;;;;;;;3.95;3.35;;;5.90;99.90;;;6.01;83.74;99216.88;4881342;29;20199;-66
2021/12/24 09:13:00;;;;;;;3.90;3.50;;;5.90;99.90;;;6.01;83.84;99200.78;4883005;29;20203;-67
2021/12/24 09:15:31;;;;;;;3.72;3.17;;;5.90;99.90;;;6.16;83.43;99195.13;4883173;29;20190;-67
2021/12/24 09:18:01;;;;;;;4.75;3.58;;;6.00;99.90;;;6.11;83.02;99188.53;4884189;29;20223;-67
2021/12/24 09:20:37;;;;;;;3.20;2.90;;;6.00;99.90;;;6.21;83.30;99201.50;4882783;29;20199;-68
2021/12/24 09:23:07;;;;;;;4.50;3.88;;;6.10;99.90;;;6.23;82.60;99202.13;4883548;29;20194;-66
2021/12/24 09:25:36;;;;;;;3.25;2.95;;;6.10;99.90;;;6.17;82.17;99216.41;4882962;29;20198;-67
2021/12/24 09:28:05;;;;;;;4.13;3.75;;;6.00;99.90;;;6.11;82.56;99214.56;4882122;29;20218;-68
2021/12/24 09:30:35;;;;;;;3.22;2.92;;;6.00;99.90;;;6.03;82.67;99220.19;4883551;29;20194;-69
2021/12/24 09:33:06;;;;;;;4.57;3.80;;;6.00;99.90;;;6.07;82.79;99226.78;4882433;29;20211;-67
2021/12/24 09:35:34;;;;;;;3.38;3.05;;;6.00;99.90;;;6.01;82.93;99216.88;4881828;29;20227;-67
2021/12/24 09:38:04;;;;;;;4.07;3.15;;;5.90;99.90;;;6.01;82.79;99222.25;4882135;29;20206;-67
2021/12/24 09:40:35;;;;;;;3.83;3.08;;;5.90;99.90;;;5.81;83.01;99216.13;4881156;29;20195;-67
2021/12/24 09:43:04;;;;;;;3.88;3.00;;;5.80;99.90;;;5.90;82.81;99225.63;4881117;29;20191;-66
2021/12/24 09:45:32;;;;;;;2.72;2.35;;;5.80;99.90;;;5.82;82.83;99212.38;4882124;29;20207;-66
2021/12/24 09:48:02;;;;;;;4.35;3.40;;;5.80;99.90;;;6.01;82.58;99209.66;4883292;29;20222;-68
2021/12/24 09:50:31;;;;;;;4.50;2.30;;;5.90;99.90;;;6.02;82.55;99215.84;4881099;29;20210;-67
2021/12/24 09:52:59;;;;;;;3.33;2.47;;;5.90;99.90;;;6.09;82.32;99225.53;4880037;29;20206;-67
2021/12/24 09:55:30;;;;;;;5.07;2.80;;;6.00;99.90;;;6.12;82.09;99224.28;4879926;29;20219;-67
2021/12/24 09:57:59;;;;;;;2.70;2.20;;;6.00;99.90;;;6.08;82.67;99212.31;4880845;29;20214;-66
2021/12/24 10:00:29;;;;;;;3.42;3.05;;;6.00;99.90;;;6.08;82.04;99215.00;4885393;29;20214;-66
2021/12/24 10:02:59;;;;;;;4.05;3.67;;;6.00;99.90;;;6.23;82.21;99207.50;4885960;29;20207;-68
2021/12/24 10:05:35;;;;;;;4.57;3.40;;;6.10;99.90;;;6.41;81.64;99217.50;4885686;29;20195;-67
2021/12/24 10:08:15;;;;;;;3.88;2.78;;;6.20;99.90;;;6.32;81.44;99214.25;4882246;29;20357;-66
2021/12/24 10:10:50;;;;;;;4.68;3.90;;;6.20;99.90;;;6.34;81.86;99212.16;4879050;29;20171;-68
2021/12/24 10:13:31;;;;;;;3.65;2.30;;;6.20;99.90;;;6.28;81.71;99210.38;4879340;29;20213;-68
2021/12/24 10:16:03;;;;;;;2.72;2.47;;;6.20;99.90;;;6.30;81.81;99210.94;4879339;29;20193;-67
2021/12/24 10:18:38;;;;;;;3.10;2.63;;;6.20;99.90;;;6.28;81.72;99220.28;4878866;29;20676;-66
2021/12/24 10:21:13;;;;;;;4.20;3.80;;;6.20;99.90;;;6.14;82.32;99227.59;4879675;29;20294;-67
2021/12/24 10:23:53;;;;;;;5.30;3.92;;;6.10;99.90;;;6.10;82.18;99226.34;4878908;29;20687;-67
2021/12/24 10:26:26;;;;;;;3.05;2.80;;;6.00;99.90;;;6.07;82.47;99221.41;4878991;29;20567;-67
2021/12/24 10:29:03;;;;;;;3.63;2.45;;;6.00;99.90;;;6.10;82.33;99223.66;4878868;29;20191;-68
2021/12/24 10:31:35;;;;;;;2.20;2.00;;;6.00;99.90;;;5.83;82.51;99214.03;4879223;29;20187;-67
2021/12/24 10:34:24;;;;;;;3.50;2.25;;;5.80;99.90;;;5.78;82.62;99219.22;4879491;29;20621;-67
2021/12/24 10:37:12;;;;;;;3.10;2.80;;;5.80;99.90;;;5.58;83.15;99209.38;4879321;29;20209;-66
2021/12/24 10:39:48;;;;;;;4.13;3.42;;;5.70;99.90;;;5.60;83.71;99206.50;4879503;29;20256;-67
2021/12/24 10:42:26;;;;;;;2.28;2.08;;;5.60;99.90;;;5.47;82.98;99198.47;4880645;29;20201;-68
2021/12/24 10:44:57;;;;;;;3.00;2.65;;;5.50;99.90;;;5.59;83.26;99194.09;4881228;29;20183;-67
2021/12/24 10:47:28;;;;;;;3.92;3.58;;;5.50;99.90;;;5.63;83.46;99198.84;4882321;29;20222;-67
2021/12/24 10:55:35;;;;;;;3.35;3.03;;;5.70;99.90;;;5.61;82.42;99205.47;4888090;29;20213;-68
2021/12/24 10:58:14;;;;;;;3.88;3.33;;;5.60;99.90;;;5.62;82.65;99207.91;4887873;29;20278;-67
2021/12/24 11:00:48;;;;;;;2.38;1.92;;;5.60;99.90;;;5.46;82.67;99216.44;4886929;29;20210;-67
2021/12/24 11:03:21;;;;;;;2.78;2.55;;;5.50;99.90;;;5.41;83.04;99210.88;4888821;29;20214;-66
2021/12/24 11:05:53;;;;;;;2.75;2.55;;;5.40;99.90;;;5.33;83.03;99229.84;4883195;29;20574;-66
2021/12/24 11:08:27;;;;;;;2.60;1.88;;;5.40;99.90;;;5.21;82.98;99231.53;4882134;29;20201;-66
2021/12/24 11:10:57;;;;;;;3.08;2.53;;;5.30;99.90;;;5.23;83.50;99237.50;4888796;29;20235;-68
2021/12/24 11:13:37;;;;;;;2.10;1.75;;;5.20;99.90;;;5.21;83.22;99223.47;4887740;29;20222;-69
2021/12/24 11:16:07;;;;;;;1.88;1.60;;;5.20;99.90;;;4.94;81.90;99219.97;4885939;29;20213;-68
2021/12/24 11:18:40;;;;;;;2.25;2.05;;;5.00;99.90;;;4.80;82.41;99221.84;4883304;29;20243;-68
2021/12/24 11:21:12;;;;;;;2.10;1.77;;;4.90;99.90;;;4.93;82.09;99213.00;4881239;29;20256;-67
2021/12/24 11:23:43;;;;;;;2.10;1.63;;;4.90;99.90;;;4.86;81.77;99224.72;4880728;29;20184;-67
2021/12/24 11:26:14;;;;;;;1.92;1.40;;;4.80;99.90;;;4.76;81.13;99212.56;4880059;29;20218;-66
2021/12/24 11:28:45;;;;;;;2.10;1.30;;;4.80;99.90;;;4.73;81.12;99213.00;4883228;29;20187;-67
2021/12/24 11:31:16;;;;;;;4.80;1.90;;;4.70;99.90;;;4.78;80.79;99209.69;4882706;29;20256;-67
2021/12/24 11:33:48;;;;;;;1.77;1.67;;;4.70;99.90;;;4.63;81.37;99212.56;4881482;29;20727;-67
2021/12/24 11:36:18;;;;;;;1.40;1.10;;;4.70;99.90;;;4.59;81.47;99224.72;4881564;29;20588;-67
2021/12/24 11:38:51;;;;;;;2.05;1.85;;;4.60;99.90;;;4.54;81.51;99239.75;4879154;29;20555;-66
2021/12/24 11:41:25;;;;;;;1.90;1.40;;;4.60;99.90;;;4.49;81.08;99232.31;4878748;29;20589;-66
2021/12/24 11:43:56;;;;;;;2.10;1.13;;;4.50;99.90;;;4.36;81.85;99221.56;4878670;29;20194;-67
2021/12/24 11:46:27;;;;;;;1.80;1.27;;;4.40;99.90;;;4.47;82.16;99229.00;4879069;29;20225;-67
2021/12/24 11:48:56;;;;;;;1.75;1.55;;;4.40;99.90;;;4.42;81.68;99236.84;4879902;29;20227;-67
2021/12/24 11:51:30;;;;;;;1.58;1.33;;;4.50;99.90;;;4.43;82.05;99243.00;4879609;29;20210;-65
2021/12/24 11:54:06;;;;;;;2.03;1.63;;;4.50;99.90;;;4.35;82.08;99233.31;4880999;29;20617;-67
2021/12/24 11:56:41;;;;;;;2.20;2.00;;;4.40;99.90;;;4.25;82.49;99252.47;4883098;29;20222;-67
2021/12/24 11:59:10;;;;;;;2.70;1.92;;;4.30;99.90;;;4.22;82.50;99255.53;4882535;29;20667;-67
2021/12/24 12:01:43;;;;;;;2.78;1.60;;;4.30;99.90;;;4.11;82.36;99276.69;4883015;29;20283;-67
2021/12/24 12:04:16;;;;;;;2.40;1.90;;;4.20;99.90;;;4.00;82.62;99294.16;4882209;29;20333;-68